sensor_id;sensor_type;location;lat;lon;timestamp;temperature;humidity
52675;DHT22;38569;52.722;6.440;2022-12-10T00:00:53;0.10;99.90
52675;DHT22;38569;52.722;6.440;2022-12-10T00:03:19;0.10;99.90
52675;DHT22;38569;52.722;6.440;2022-12-10T00:05:45;0.00;99.90
52675;DHT22;38569;52.722;6.440;2022-12-10T00:08:10;0.00;99.90
52675;DHT22;38569;52.722;6.440;2022-12-10T00:10:40;0.00;99.90
52675;DHT22;38569;52.722;6.440;2022-12-10T00:13:06;0.00;99.90
52675;DHT22;38569;52.722;6.440;2022-12-10T00:15:34;-0.10;99.90
52675;DHT22;38569;52.722;6.440;2022-12-10T00:18:00;-0.10;99.90
52675;DHT22;38569;52.722;6.440;2022-12-10T00:20:26;-0.20;99.90
52675;DHT22;38569;52.722;6.440;2022-12-10T00:22:51;-0.20;99.90
52675;DHT22;38569;52.722;6.440;2022-12-10T00:25:17;-0.30;99.90
52675;DHT22;38569;52.722;6.440;2022-12-10T00:27:43;-0.40;99.90
52675;DHT22;38569;52.722;6.440;2022-12-10T00:30:09;-0.40;99.90
52675;DHT22;38569;52.722;6.440;2022-12-10T00:32:35;-0.40;99.90
52675;DHT22;38569;52.722;6.440;2022-12-10T00:35:00;-0.50;99.90
52675;DHT22;38569;52.722;6.440;2022-12-10T00:37:26;-0.50;99.90
52675;DHT22;38569;52.722;6.440;2022-12-10T00:39:52;-0.60;99.90
52675;DHT22;38569;52.722;6.440;2022-12-10T00:42:17;-0.60;99.90
52675;DHT22;38569;52.722;6.440;2022-12-10T00:44:43;-0.60;99.90
52675;DHT22;38569;52.722;6.440;2022-12-10T00:47:08;-0.70;99.90
52675;DHT22;38569;52.722;6.440;2022-12-10T00:49:34;-0.70;99.90
52675;DHT22;38569;52.722;6.440;2022-12-10T00:52:00;-0.70;99.90
52675;DHT22;38569;52.722;6.440;2022-12-10T00:54:25;-0.70;99.90
52675;DHT22;38569;52.722;6.440;2022-12-10T00:56:51;-0.80;99.90
52675;DHT22;38569;52.722;6.440;2022-12-10T00:59:17;-0.80;99.90
52675;DHT22;38569;52.722;6.440;2022-12-10T01:01:43;-0.80;99.90
52675;DHT22;38569;52.722;6.440;2022-12-10T01:04:13;-0.80;99.90
52675;DHT22;38569;52.722;6.440;2022-12-10T01:06:50;-0.80;99.90
52675;DHT22;38569;52.722;6.440;2022-12-10T01:09:22;-0.80;99.90
52675;DHT22;38569;52.722;6.440;2022-12-10T01:11:49;-0.90;99.90
52675;DHT22;38569;52.722;6.440;2022-12-10T01:14:18;-0.90;99.90
52675;DHT22;38569;52.722;6.440;2022-12-10T01:16:44;-0.90;99.90
52675;DHT22;38569;52.722;6.440;2022-12-10T01:19:10;-0.90;99.90
52675;DHT22;38569;52.722;6.440;2022-12-10T01:21:36;-1.00;99.90
52675;DHT22;38569;52.722;6.440;2022-12-10T01:24:02;-1.00;99.90
52675;DHT22;38569;52.722;6.440;2022-12-10T01:26:30;-1.00;99.90
52675;DHT22;38569;52.722;6.440;2022-12-10T01:28:57;-1.00;99.90
52675;DHT22;38569;52.722;6.440;2022-12-10T01:31:32;-1.00;99.90
52675;DHT22;38569;52.722;6.440;2022-12-10T01:33:59;-1.00;99.90
52675;DHT22;38569;52.722;6.440;2022-12-10T01:36:30;-1.10;99.90
52675;DHT22;38569;52.722;6.440;2022-12-10T01:38:57;-1.10;99.90
52675;DHT22;38569;52.722;6.440;2022-12-10T01:41:26;-1.00;99.90
52675;DHT22;38569;52.722;6.440;2022-12-10T01:46:28;-1.00;99.90
52675;DHT22;38569;52.722;6.440;2022-12-10T01:48:55;-1.00;99.90
52675;DHT22;38569;52.722;6.440;2022-12-10T01:51:22;-1.10;99.90
52675;DHT22;38569;52.722;6.440;2022-12-10T01:53:48;-1.00;99.90
52675;DHT22;38569;52.722;6.440;2022-12-10T01:56:17;-1.00;99.90
52675;DHT22;38569;52.722;6.440;2022-12-10T01:58:43;-1.00;99.90
52675;DHT22;38569;52.722;6.440;2022-12-10T02:01:15;-1.00;99.90
52675;DHT22;38569;52.722;6.440;2022-12-10T02:11:44;-0.90;99.90
52675;DHT22;38569;52.722;6.440;2022-12-10T02:16:59;-1.00;99.90
52675;DHT22;38569;52.722;6.440;2022-12-10T02:22:10;-1.10;99.90
52675;DHT22;38569;52.722;6.440;2022-12-10T02:24:39;-1.20;99.90
52675;DHT22;38569;52.722;6.440;2022-12-10T02:27:26;-1.20;99.90
52675;DHT22;38569;52.722;6.440;2022-12-10T02:29:54;-1.20;99.90
52675;DHT22;38569;52.722;6.440;2022-12-10T02:32:36;-1.20;99.90
52675;DHT22;38569;52.722;6.440;2022-12-10T02:35:06;-1.20;99.90
52675;DHT22;38569;52.722;6.440;2022-12-10T02:37:49;-1.20;99.90
52675;DHT22;38569;52.722;6.440;2022-12-10T02:40:24;-1.20;99.90
52675;DHT22;38569;52.722;6.440;2022-12-10T02:42:52;-1.20;99.90
52675;DHT22;38569;52.722;6.440;2022-12-10T02:45:21;-1.30;99.90
52675;DHT22;38569;52.722;6.440;2022-12-10T02:47:47;-1.30;99.90
52675;DHT22;38569;52.722;6.440;2022-12-10T02:50:15;-1.20;99.90
52675;DHT22;38569;52.722;6.440;2022-12-10T02:52:41;-1.20;99.90
52675;DHT22;38569;52.722;6.440;2022-12-10T02:55:13;-1.20;99.90
52675;DHT22;38569;52.722;6.440;2022-12-10T03:00:26;-1.20;99.90
52675;DHT22;38569;52.722;6.440;2022-12-10T03:05:52;-1.30;99.90
52675;DHT22;38569;52.722;6.440;2022-12-10T03:08:47;-1.30;99.90
52675;DHT22;38569;52.722;6.440;2022-12-10T03:11:21;-1.30;99.90
52675;DHT22;38569;52.722;6.440;2022-12-10T03:16:36;-1.30;99.90
52675;DHT22;38569;52.722;6.440;2022-12-10T03:19:12;-1.30;99.90
52675;DHT22;38569;52.722;6.440;2022-12-10T03:21:41;-1.40;99.90
52675;DHT22;38569;52.722;6.440;2022-12-10T03:24:08;-1.40;99.90
52675;DHT22;38569;52.722;6.440;2022-12-10T03:26:35;-1.40;99.90
52675;DHT22;38569;52.722;6.440;2022-12-10T03:29:07;-1.40;99.90
52675;DHT22;38569;52.722;6.440;2022-12-10T03:31:34;-1.40;99.90
52675;DHT22;38569;52.722;6.440;2022-12-10T03:34:02;-1.40;99.90
52675;DHT22;38569;52.722;6.440;2022-12-10T03:36:28;-1.40;99.90
52675;DHT22;38569;52.722;6.440;2022-12-10T03:38:55;-1.50;99.90
52675;DHT22;38569;52.722;6.440;2022-12-10T03:41:22;-1.50;99.90
52675;DHT22;38569;52.722;6.440;2022-12-10T03:43:56;-1.60;99.90
52675;DHT22;38569;52.722;6.440;2022-12-10T03:46:23;-1.60;99.90
52675;DHT22;38569;52.722;6.440;2022-12-10T03:48:50;-1.70;99.90
52675;DHT22;38569;52.722;6.440;2022-12-10T03:51:16;-1.70;99.90
52675;DHT22;38569;52.722;6.440;2022-12-10T03:53:42;-1.70;99.90
52675;DHT22;38569;52.722;6.440;2022-12-10T03:56:08;-1.70;99.90
52675;DHT22;38569;52.722;6.440;2022-12-10T03:58:34;-1.60;99.90
52675;DHT22;38569;52.722;6.440;2022-12-10T04:00:59;-1.70;99.90
52675;DHT22;38569;52.722;6.440;2022-12-10T04:03:25;-1.70;99.90
52675;DHT22;38569;52.722;6.440;2022-12-10T04:05:51;-1.70;99.90
52675;DHT22;38569;52.722;6.440;2022-12-10T04:08:16;-1.80;99.90
52675;DHT22;38569;52.722;6.440;2022-12-10T04:10:42;-1.80;99.90
52675;DHT22;38569;52.722;6.440;2022-12-10T04:13:08;-1.80;99.90
52675;DHT22;38569;52.722;6.440;2022-12-10T04:15:52;-1.80;99.90
52675;DHT22;38569;52.722;6.440;2022-12-10T04:18:36;-1.80;99.90
52675;DHT22;38569;52.722;6.440;2022-12-10T04:21:01;-1.80;99.90
52675;DHT22;38569;52.722;6.440;2022-12-10T04:23:45;-1.80;99.90
52675;DHT22;38569;52.722;6.440;2022-12-10T04:26:30;-1.80;99.90
52675;DHT22;38569;52.722;6.440;2022-12-10T04:29:14;-1.80;99.90
52675;DHT22;38569;52.722;6.440;2022-12-10T04:31:39;-1.80;99.90
52675;DHT22;38569;52.722;6.440;2022-12-10T04:34:05;-1.80;99.90
52675;DHT22;38569;52.722;6.440;2022-12-10T04:36:31;-1.80;99.90
52675;DHT22;38569;52.722;6.440;2022-12-10T04:38:56;-1.80;99.90
52675;DHT22;38569;52.722;6.440;2022-12-10T04:41:22;-1.80;99.90
52675;DHT22;38569;52.722;6.440;2022-12-10T04:43:47;-1.80;99.90
52675;DHT22;38569;52.722;6.440;2022-12-10T04:46:13;-1.90;99.90
52675;DHT22;38569;52.722;6.440;2022-12-10T04:48:39;-1.90;99.90
52675;DHT22;38569;52.722;6.440;2022-12-10T04:51:04;-2.00;99.90
52675;DHT22;38569;52.722;6.440;2022-12-10T04:53:30;-2.00;99.90
52675;DHT22;38569;52.722;6.440;2022-12-10T04:55:56;-2.00;99.90
52675;DHT22;38569;52.722;6.440;2022-12-10T04:58:21;-2.00;99.90
52675;DHT22;38569;52.722;6.440;2022-12-10T05:00:47;-2.00;99.90
52675;DHT22;38569;52.722;6.440;2022-12-10T05:03:13;-2.00;99.90
52675;DHT22;38569;52.722;6.440;2022-12-10T05:05:38;-2.00;99.90
52675;DHT22;38569;52.722;6.440;2022-12-10T05:08:04;-2.00;99.90
52675;DHT22;38569;52.722;6.440;2022-12-10T05:10:30;-2.00;99.90
52675;DHT22;38569;52.722;6.440;2022-12-10T05:12:56;-2.00;99.90
52675;DHT22;38569;52.722;6.440;2022-12-10T05:15:21;-2.00;99.90
52675;DHT22;38569;52.722;6.440;2022-12-10T05:17:47;-2.10;99.90
52675;DHT22;38569;52.722;6.440;2022-12-10T05:20:13;-2.10;99.90
52675;DHT22;38569;52.722;6.440;2022-12-10T05:22:39;-2.10;99.90
52675;DHT22;38569;52.722;6.440;2022-12-10T05:25:23;-2.10;99.90
52675;DHT22;38569;52.722;6.440;2022-12-10T05:27:49;-2.20;99.90
52675;DHT22;38569;52.722;6.440;2022-12-10T05:30:14;-2.20;99.90
52675;DHT22;38569;52.722;6.440;2022-12-10T05:32:40;-2.10;99.90
52675;DHT22;38569;52.722;6.440;2022-12-10T05:35:06;-2.20;99.90
52675;DHT22;38569;52.722;6.440;2022-12-10T05:37:32;-2.20;99.90
52675;DHT22;38569;52.722;6.440;2022-12-10T05:39:58;-2.20;99.90
52675;DHT22;38569;52.722;6.440;2022-12-10T05:42:23;-2.20;99.90
52675;DHT22;38569;52.722;6.440;2022-12-10T05:44:49;-2.20;99.90
52675;DHT22;38569;52.722;6.440;2022-12-10T05:47:15;-2.30;99.90
52675;DHT22;38569;52.722;6.440;2022-12-10T05:49:40;-2.20;99.90
52675;DHT22;38569;52.722;6.440;2022-12-10T05:52:06;-2.30;99.90
52675;DHT22;38569;52.722;6.440;2022-12-10T05:54:34;-2.30;99.90
52675;DHT22;38569;52.722;6.440;2022-12-10T05:57:00;-2.20;99.90
52675;DHT22;38569;52.722;6.440;2022-12-10T05:59:25;-2.20;99.90
52675;DHT22;38569;52.722;6.440;2022-12-10T06:01:51;-2.20;99.90
52675;DHT22;38569;52.722;6.440;2022-12-10T06:04:17;-2.10;99.90
52675;DHT22;38569;52.722;6.440;2022-12-10T06:06:42;-2.10;99.90
52675;DHT22;38569;52.722;6.440;2022-12-10T06:09:12;-2.10;99.90
52675;DHT22;38569;52.722;6.440;2022-12-10T06:11:38;-2.10;99.90
52675;DHT22;38569;52.722;6.440;2022-12-10T06:14:04;-2.00;99.90
52675;DHT22;38569;52.722;6.440;2022-12-10T06:16:29;-1.90;99.90
52675;DHT22;38569;52.722;6.440;2022-12-10T06:18:56;-1.90;99.90
52675;DHT22;38569;52.722;6.440;2022-12-10T06:21:22;-1.80;99.90
52675;DHT22;38569;52.722;6.440;2022-12-10T06:23:48;-1.80;99.90
52675;DHT22;38569;52.722;6.440;2022-12-10T06:26:19;-1.70;99.90
52675;DHT22;38569;52.722;6.440;2022-12-10T06:28:46;-1.60;99.90
52675;DHT22;38569;52.722;6.440;2022-12-10T06:31:13;-1.60;99.90
52675;DHT22;38569;52.722;6.440;2022-12-10T06:33:39;-1.60;99.90
52675;DHT22;38569;52.722;6.440;2022-12-10T06:36:07;-1.50;99.90
52675;DHT22;38569;52.722;6.440;2022-12-10T06:38:34;-1.50;99.90
52675;DHT22;38569;52.722;6.440;2022-12-10T06:41:00;-1.60;99.90
52675;DHT22;38569;52.722;6.440;2022-12-10T06:43:29;-1.60;99.90
52675;DHT22;38569;52.722;6.440;2022-12-10T06:45:55;-1.60;99.90
52675;DHT22;38569;52.722;6.440;2022-12-10T06:48:20;-1.60;99.90
52675;DHT22;38569;52.722;6.440;2022-12-10T06:50:46;-1.60;99.90
52675;DHT22;38569;52.722;6.440;2022-12-10T06:53:12;-1.60;99.90
52675;DHT22;38569;52.722;6.440;2022-12-10T06:55:37;-1.60;99.90
52675;DHT22;38569;52.722;6.440;2022-12-10T06:58:06;-1.60;99.90
52675;DHT22;38569;52.722;6.440;2022-12-10T07:00:32;-1.50;99.90
52675;DHT22;38569;52.722;6.440;2022-12-10T07:02:58;-1.50;99.90
52675;DHT22;38569;52.722;6.440;2022-12-10T07:05:23;-1.50;99.90
52675;DHT22;38569;52.722;6.440;2022-12-10T07:07:49;-1.50;99.90
52675;DHT22;38569;52.722;6.440;2022-12-10T07:10:15;-1.50;99.90
52675;DHT22;38569;52.722;6.440;2022-12-10T07:12:40;-1.40;99.90
52675;DHT22;38569;52.722;6.440;2022-12-10T07:15:06;-1.40;99.90
52675;DHT22;38569;52.722;6.440;2022-12-10T07:17:32;-1.40;99.90
52675;DHT22;38569;52.722;6.440;2022-12-10T07:19:58;-1.30;99.90
52675;DHT22;38569;52.722;6.440;2022-12-10T07:22:23;-1.30;99.90
52675;DHT22;38569;52.722;6.440;2022-12-10T07:24:49;-1.30;99.90
52675;DHT22;38569;52.722;6.440;2022-12-10T07:27:16;-1.20;99.90
52675;DHT22;38569;52.722;6.440;2022-12-10T07:29:43;-1.20;99.90
52675;DHT22;38569;52.722;6.440;2022-12-10T07:32:08;-1.10;99.90
52675;DHT22;38569;52.722;6.440;2022-12-10T07:34:34;-1.10;99.90
52675;DHT22;38569;52.722;6.440;2022-12-10T07:37:00;-1.10;99.90
52675;DHT22;38569;52.722;6.440;2022-12-10T07:39:25;-1.10;99.90
52675;DHT22;38569;52.722;6.440;2022-12-10T07:41:52;-1.00;99.90
52675;DHT22;38569;52.722;6.440;2022-12-10T07:44:20;-0.90;99.90
52675;DHT22;38569;52.722;6.440;2022-12-10T07:46:47;-0.90;99.90
52675;DHT22;38569;52.722;6.440;2022-12-10T07:49:14;-0.90;99.90
52675;DHT22;38569;52.722;6.440;2022-12-10T07:51:39;-0.90;99.90
52675;DHT22;38569;52.722;6.440;2022-12-10T07:54:05;-0.80;99.90
52675;DHT22;38569;52.722;6.440;2022-12-10T07:56:31;-0.90;99.90
52675;DHT22;38569;52.722;6.440;2022-12-10T07:58:57;-0.90;99.90
52675;DHT22;38569;52.722;6.440;2022-12-10T08:01:24;-0.90;99.90
52675;DHT22;38569;52.722;6.440;2022-12-10T08:03:52;-0.80;99.90
52675;DHT22;38569;52.722;6.440;2022-12-10T08:06:20;-0.80;99.90
52675;DHT22;38569;52.722;6.440;2022-12-10T08:08:47;-0.70;99.90
52675;DHT22;38569;52.722;6.440;2022-12-10T08:11:14;-0.60;99.90
52675;DHT22;38569;52.722;6.440;2022-12-10T08:13:43;-0.70;99.90
52675;DHT22;38569;52.722;6.440;2022-12-10T08:16:17;-0.70;99.90
52675;DHT22;38569;52.722;6.440;2022-12-10T08:18:43;-0.60;99.90
52675;DHT22;38569;52.722;6.440;2022-12-10T08:21:15;-0.60;99.90
52675;DHT22;38569;52.722;6.440;2022-12-10T08:23:42;-0.60;99.90
52675;DHT22;38569;52.722;6.440;2022-12-10T08:26:10;-0.50;99.90
52675;DHT22;38569;52.722;6.440;2022-12-10T08:28:37;-0.50;99.90
52675;DHT22;38569;52.722;6.440;2022-12-10T08:31:04;-0.50;99.90
52675;DHT22;38569;52.722;6.440;2022-12-10T08:33:33;-0.40;99.90
52675;DHT22;38569;52.722;6.440;2022-12-10T08:35:59;-0.30;99.90
52675;DHT22;38569;52.722;6.440;2022-12-10T08:38:25;-0.40;99.90
52675;DHT22;38569;52.722;6.440;2022-12-10T08:40:51;-0.40;99.90
52675;DHT22;38569;52.722;6.440;2022-12-10T08:43:16;-0.40;99.90
52675;DHT22;38569;52.722;6.440;2022-12-10T08:45:42;-0.40;99.90
52675;DHT22;38569;52.722;6.440;2022-12-10T08:48:08;-0.40;99.90
52675;DHT22;38569;52.722;6.440;2022-12-10T08:50:33;-0.40;99.90
52675;DHT22;38569;52.722;6.440;2022-12-10T08:53:00;-0.30;99.90
52675;DHT22;38569;52.722;6.440;2022-12-10T08:55:25;-0.30;99.90
52675;DHT22;38569;52.722;6.440;2022-12-10T08:57:51;-0.30;99.90
52675;DHT22;38569;52.722;6.440;2022-12-10T09:00:18;-0.30;99.90
52675;DHT22;38569;52.722;6.440;2022-12-10T09:02:44;-0.40;99.90
52675;DHT22;38569;52.722;6.440;2022-12-10T09:05:10;-0.30;99.90
52675;DHT22;38569;52.722;6.440;2022-12-10T09:07:36;-0.20;99.90
52675;DHT22;38569;52.722;6.440;2022-12-10T09:10:02;-0.30;99.90
52675;DHT22;38569;52.722;6.440;2022-12-10T09:12:28;-0.30;99.90
52675;DHT22;38569;52.722;6.440;2022-12-10T09:14:53;-0.20;99.90
52675;DHT22;38569;52.722;6.440;2022-12-10T09:17:19;-0.10;99.90
52675;DHT22;38569;52.722;6.440;2022-12-10T09:19:44;-0.20;99.90
52675;DHT22;38569;52.722;6.440;2022-12-10T09:22:10;-0.20;99.90
52675;DHT22;38569;52.722;6.440;2022-12-10T09:24:36;-0.20;99.90
52675;DHT22;38569;52.722;6.440;2022-12-10T09:27:02;-0.30;99.90
52675;DHT22;38569;52.722;6.440;2022-12-10T09:29:29;-0.30;99.90
52675;DHT22;38569;52.722;6.440;2022-12-10T09:31:54;-0.30;99.90
52675;DHT22;38569;52.722;6.440;2022-12-10T09:34:20;-0.30;99.90
52675;DHT22;38569;52.722;6.440;2022-12-10T09:36:47;-0.20;99.90
52675;DHT22;38569;52.722;6.440;2022-12-10T09:39:13;-0.20;99.90
52675;DHT22;38569;52.722;6.440;2022-12-10T09:47:04;0.10;99.90
52675;DHT22;38569;52.722;6.440;2022-12-10T09:49:57;0.10;99.90
52675;DHT22;38569;52.722;6.440;2022-12-10T09:52:27;0.10;99.90
52675;DHT22;38569;52.722;6.440;2022-12-10T09:55:12;0.10;99.90
52675;DHT22;38569;52.722;6.440;2022-12-10T09:57:39;0.20;99.90
52675;DHT22;38569;52.722;6.440;2022-12-10T10:00:23;0.20;99.90
52675;DHT22;38569;52.722;6.440;2022-12-10T10:02:51;0.20;99.90
52675;DHT22;38569;52.722;6.440;2022-12-10T10:05:23;0.20;99.90
52675;DHT22;38569;52.722;6.440;2022-12-10T10:07:56;0.20;99.90
52675;DHT22;38569;52.722;6.440;2022-12-10T10:10:35;0.20;99.90
52675;DHT22;38569;52.722;6.440;2022-12-10T10:15:37;0.20;99.90
52675;DHT22;38569;52.722;6.440;2022-12-10T10:18:12;0.30;99.90
52675;DHT22;38569;52.722;6.440;2022-12-10T10:20:39;0.30;99.90
52675;DHT22;38569;52.722;6.440;2022-12-10T10:23:05;0.40;99.90
52675;DHT22;38569;52.722;6.440;2022-12-10T10:25:31;0.40;99.90
52675;DHT22;38569;52.722;6.440;2022-12-10T10:27:57;0.50;99.90
52675;DHT22;38569;52.722;6.440;2022-12-10T10:30:23;0.50;99.90
52675;DHT22;38569;52.722;6.440;2022-12-10T10:32:55;0.50;99.90
52675;DHT22;38569;52.722;6.440;2022-12-10T10:35:22;0.40;99.90
52675;DHT22;38569;52.722;6.440;2022-12-10T10:37:49;0.50;99.90
52675;DHT22;38569;52.722;6.440;2022-12-10T10:40:33;0.40;99.90
52675;DHT22;38569;52.722;6.440;2022-12-10T10:43:04;0.30;99.90
52675;DHT22;38569;52.722;6.440;2022-12-10T10:48:18;0.40;99.90
52675;DHT22;38569;52.722;6.440;2022-12-10T10:50:49;0.50;99.90
52675;DHT22;38569;52.722;6.440;2022-12-10T10:56:15;0.50;99.90
52675;DHT22;38569;52.722;6.440;2022-12-10T10:59:18;0.50;99.90
52675;DHT22;38569;52.722;6.440;2022-12-10T11:01:52;0.50;99.90
52675;DHT22;38569;52.722;6.440;2022-12-10T11:07:02;0.50;99.90
52675;DHT22;38569;52.722;6.440;2022-12-10T11:09:30;0.50;99.90
52675;DHT22;38569;52.722;6.440;2022-12-10T11:12:03;0.50;99.90
52675;DHT22;38569;52.722;6.440;2022-12-10T11:14:33;0.50;99.90
52675;DHT22;38569;52.722;6.440;2022-12-10T11:19:58;0.60;99.90
52675;DHT22;38569;52.722;6.440;2022-12-10T11:22:29;0.60;99.90
52675;DHT22;38569;52.722;6.440;2022-12-10T11:24:56;0.60;99.90
52675;DHT22;38569;52.722;6.440;2022-12-10T11:30:04;0.50;99.90
52675;DHT22;38569;52.722;6.440;2022-12-10T11:38:24;0.60;99.90
52675;DHT22;38569;52.722;6.440;2022-12-10T11:49:34;0.40;99.90
52675;DHT22;38569;52.722;6.440;2022-12-10T11:52:16;0.40;99.90
52675;DHT22;38569;52.722;6.440;2022-12-10T12:00:19;0.40;99.90
52675;DHT22;38569;52.722;6.440;2022-12-10T12:08:08;0.40;99.90
52675;DHT22;38569;52.722;6.440;2022-12-10T12:13:29;0.50;99.90
52675;DHT22;38569;52.722;6.440;2022-12-10T12:16:07;0.60;99.90
52675;DHT22;38569;52.722;6.440;2022-12-10T12:21:15;0.60;99.90
52675;DHT22;38569;52.722;6.440;2022-12-10T12:23:51;0.70;99.90
52675;DHT22;38569;52.722;6.440;2022-12-10T12:29:36;0.70;99.90
52675;DHT22;38569;52.722;6.440;2022-12-10T12:31:46;0.60;99.90
52675;DHT22;38569;52.722;6.440;2022-12-10T12:34:21;0.60;99.90
52675;DHT22;38569;52.722;6.440;2022-12-10T12:36:49;0.60;99.90
52675;DHT22;38569;52.722;6.440;2022-12-10T12:44:22;0.60;99.90
52675;DHT22;38569;52.722;6.440;2022-12-10T12:46:55;0.60;99.90
52675;DHT22;38569;52.722;6.440;2022-12-10T12:49:48;0.70;99.90
52675;DHT22;38569;52.722;6.440;2022-12-10T12:55:03;0.80;99.90
52675;DHT22;38569;52.722;6.440;2022-12-10T12:57:45;0.90;99.90
52675;DHT22;38569;52.722;6.440;2022-12-10T13:00:15;1.00;99.90
52675;DHT22;38569;52.722;6.440;2022-12-10T13:05:40;1.10;99.90
52675;DHT22;38569;52.722;6.440;2022-12-10T13:08:28;1.10;99.90
52675;DHT22;38569;52.722;6.440;2022-12-10T13:13:38;1.00;99.90
52675;DHT22;38569;52.722;6.440;2022-12-10T13:27:31;1.10;99.90
52675;DHT22;38569;52.722;6.440;2022-12-10T13:30:33;1.10;99.90
52675;DHT22;38569;52.722;6.440;2022-12-10T13:33:15;1.10;99.90
52675;DHT22;38569;52.722;6.440;2022-12-10T13:36:04;1.10;99.90
52675;DHT22;38569;52.722;6.440;2022-12-10T13:38:29;1.10;99.90
52675;DHT22;38569;52.722;6.440;2022-12-10T13:41:04;1.10;99.90
52675;DHT22;38569;52.722;6.440;2022-12-10T13:43:54;1.10;99.90
52675;DHT22;38569;52.722;6.440;2022-12-10T13:49:28;1.20;99.90
52675;DHT22;38569;52.722;6.440;2022-12-10T13:55:02;1.00;99.90
52675;DHT22;38569;52.722;6.440;2022-12-10T14:00:23;1.00;99.90
52675;DHT22;38569;52.722;6.440;2022-12-10T14:02:57;0.90;99.90
52675;DHT22;38569;52.722;6.440;2022-12-10T14:08:16;1.10;99.90
52675;DHT22;38569;52.722;6.440;2022-12-10T14:10:44;1.00;99.90
52675;DHT22;38569;52.722;6.440;2022-12-10T14:13:14;1.00;99.90
52675;DHT22;38569;52.722;6.440;2022-12-10T14:15:50;1.00;99.90
52675;DHT22;38569;52.722;6.440;2022-12-10T14:18:17;0.90;99.90
52675;DHT22;38569;52.722;6.440;2022-12-10T14:20:47;0.90;99.90
52675;DHT22;38569;52.722;6.440;2022-12-10T14:23:27;1.00;99.90
52675;DHT22;38569;52.722;6.440;2022-12-10T14:26:15;0.90;99.90
52675;DHT22;38569;52.722;6.440;2022-12-10T14:28:50;0.90;99.90
52675;DHT22;38569;52.722;6.440;2022-12-10T14:31:19;0.90;99.90
52675;DHT22;38569;52.722;6.440;2022-12-10T14:33:48;0.90;99.90
52675;DHT22;38569;52.722;6.440;2022-12-10T14:36:33;0.90;99.90
52675;DHT22;38569;52.722;6.440;2022-12-10T14:39:00;0.80;99.90
52675;DHT22;38569;52.722;6.440;2022-12-10T14:41:28;0.80;99.90
52675;DHT22;38569;52.722;6.440;2022-12-10T14:43:55;0.80;99.90
52675;DHT22;38569;52.722;6.440;2022-12-10T14:46:25;0.80;99.90
52675;DHT22;38569;52.722;6.440;2022-12-10T14:48:53;0.80;99.90
52675;DHT22;38569;52.722;6.440;2022-12-10T14:51:22;0.80;99.90
52675;DHT22;38569;52.722;6.440;2022-12-10T14:53:50;0.80;99.90
52675;DHT22;38569;52.722;6.440;2022-12-10T14:56:30;0.80;99.90
52675;DHT22;38569;52.722;6.440;2022-12-10T14:59:04;0.80;99.90
52675;DHT22;38569;52.722;6.440;2022-12-10T15:01:54;0.90;99.90
52675;DHT22;38569;52.722;6.440;2022-12-10T15:04:24;0.90;99.90
52675;DHT22;38569;52.722;6.440;2022-12-10T15:06:57;0.90;99.90
52675;DHT22;38569;52.722;6.440;2022-12-10T15:09:25;0.80;99.90
52675;DHT22;38569;52.722;6.440;2022-12-10T15:11:59;0.80;99.90
52675;DHT22;38569;52.722;6.440;2022-12-10T15:14:27;0.80;99.90
52675;DHT22;38569;52.722;6.440;2022-12-10T15:16:54;0.80;99.90
52675;DHT22;38569;52.722;6.440;2022-12-10T15:19:24;0.80;99.90
52675;DHT22;38569;52.722;6.440;2022-12-10T15:21:52;0.70;99.90
52675;DHT22;38569;52.722;6.440;2022-12-10T15:24:35;0.80;99.90
52675;DHT22;38569;52.722;6.440;2022-12-10T15:27:01;0.70;99.90
52675;DHT22;38569;52.722;6.440;2022-12-10T15:29:33;0.70;99.90
52675;DHT22;38569;52.722;6.440;2022-12-10T15:32:12;0.70;99.90
52675;DHT22;38569;52.722;6.440;2022-12-10T15:34:53;0.60;99.90
52675;DHT22;38569;52.722;6.440;2022-12-10T15:37:31;0.50;99.90
52675;DHT22;38569;52.722;6.440;2022-12-10T15:40:00;0.50;99.90
52675;DHT22;38569;52.722;6.440;2022-12-10T15:42:37;0.50;99.90
52675;DHT22;38569;52.722;6.440;2022-12-10T15:45:23;0.60;99.90
52675;DHT22;38569;52.722;6.440;2022-12-10T15:47:51;0.60;99.90
52675;DHT22;38569;52.722;6.440;2022-12-10T15:50:17;0.60;99.90
52675;DHT22;38569;52.722;6.440;2022-12-10T15:52:43;0.60;99.90
52675;DHT22;38569;52.722;6.440;2022-12-10T15:55:11;0.70;99.90
52675;DHT22;38569;52.722;6.440;2022-12-10T15:57:40;0.80;99.90
52675;DHT22;38569;52.722;6.440;2022-12-10T16:00:27;0.80;99.90
52675;DHT22;38569;52.722;6.440;2022-12-10T16:03:04;0.90;99.90
52675;DHT22;38569;52.722;6.440;2022-12-10T16:05:38;0.90;99.90
52675;DHT22;38569;52.722;6.440;2022-12-10T16:10:43;0.70;99.90
52675;DHT22;38569;52.722;6.440;2022-12-10T16:13:18;0.60;99.90
52675;DHT22;38569;52.722;6.440;2022-12-10T16:16:05;0.60;99.90
52675;DHT22;38569;52.722;6.440;2022-12-10T16:18:31;0.50;99.90
52675;DHT22;38569;52.722;6.440;2022-12-10T16:20:57;0.60;99.90
52675;DHT22;38569;52.722;6.440;2022-12-10T16:23:23;0.60;99.90
52675;DHT22;38569;52.722;6.440;2022-12-10T16:25:49;0.70;99.90
52675;DHT22;38569;52.722;6.440;2022-12-10T16:28:17;0.70;99.90
52675;DHT22;38569;52.722;6.440;2022-12-10T16:30:49;0.70;99.90
52675;DHT22;38569;52.722;6.440;2022-12-10T16:33:16;0.60;99.90
52675;DHT22;38569;52.722;6.440;2022-12-10T16:35:44;0.50;99.90
52675;DHT22;38569;52.722;6.440;2022-12-10T16:38:10;0.50;99.90
52675;DHT22;38569;52.722;6.440;2022-12-10T16:40:36;0.50;99.90
52675;DHT22;38569;52.722;6.440;2022-12-10T16:43:03;0.50;99.90
52675;DHT22;38569;52.722;6.440;2022-12-10T16:45:36;0.50;99.90
52675;DHT22;38569;52.722;6.440;2022-12-10T16:48:03;0.60;99.90
52675;DHT22;38569;52.722;6.440;2022-12-10T16:50:29;0.60;99.90
52675;DHT22;38569;52.722;6.440;2022-12-10T16:52:56;0.60;99.90
52675;DHT22;38569;52.722;6.440;2022-12-10T16:55:25;0.60;99.90
52675;DHT22;38569;52.722;6.440;2022-12-10T16:57:51;0.60;99.90
52675;DHT22;38569;52.722;6.440;2022-12-10T17:00:21;0.60;99.90
52675;DHT22;38569;52.722;6.440;2022-12-10T17:02:51;0.60;99.90
52675;DHT22;38569;52.722;6.440;2022-12-10T17:07:49;0.60;99.90
52675;DHT22;38569;52.722;6.440;2022-12-10T17:10:14;0.60;99.90
52675;DHT22;38569;52.722;6.440;2022-12-10T17:12:41;0.60;99.90
52675;DHT22;38569;52.722;6.440;2022-12-10T17:15:11;0.60;99.90
52675;DHT22;38569;52.722;6.440;2022-12-10T17:17:38;0.50;99.90
52675;DHT22;38569;52.722;6.440;2022-12-10T17:20:18;0.50;99.90
52675;DHT22;38569;52.722;6.440;2022-12-10T17:22:44;0.40;99.90
52675;DHT22;38569;52.722;6.440;2022-12-10T17:25:09;0.50;99.90
52675;DHT22;38569;52.722;6.440;2022-12-10T17:27:35;0.50;99.90
52675;DHT22;38569;52.722;6.440;2022-12-10T17:30:01;0.40;99.90
52675;DHT22;38569;52.722;6.440;2022-12-10T17:32:27;0.40;99.90
52675;DHT22;38569;52.722;6.440;2022-12-10T17:34:55;0.40;99.90
52675;DHT22;38569;52.722;6.440;2022-12-10T17:37:21;0.40;99.90
52675;DHT22;38569;52.722;6.440;2022-12-10T17:39:48;0.30;99.90
52675;DHT22;38569;52.722;6.440;2022-12-10T17:42:14;0.40;99.90
52675;DHT22;38569;52.722;6.440;2022-12-10T17:44:40;0.50;99.90
52675;DHT22;38569;52.722;6.440;2022-12-10T17:47:24;0.50;99.90
52675;DHT22;38569;52.722;6.440;2022-12-10T17:49:51;0.60;99.90
52675;DHT22;38569;52.722;6.440;2022-12-10T17:52:16;0.60;99.90